Time;durP1;ratioP1;P1;durP2;ratioP2;P2;SDS_P1;SDS_P2;PMS_P1;PMS_P2;Temp;Humidity;BMP_temperature;BMP_pressure;BME280_temperature;BME280_humidity;BME280_pressure;Samples;Min_cycle;Max_cycle;Signal;HPM_P1;HPM_P2
2021/04/14 00:01:56;;;;;;;2.95;1.98;;;;;;;23.67;39.87;94571.31;4989143;28;20029;-74
2021/04/14 00:04:22;;;;;;;2.88;1.92;;;;;;;23.63;40.27;94566.16;4971571;28;20047;-74
2021/04/14 00:06:47;;;;;;;2.63;1.98;;;;;;;23.67;40.11;94571.31;4989430;28;20022;-74
2021/04/14 00:09:13;;;;;;;2.70;1.60;;;;;;;23.65;40.04;94579.28;4989327;28;20030;-74
2021/04/14 00:11:39;;;;;;;3.38;1.88;;;;;;;23.63;40.22;94562.66;4989187;28;20816;-74
2021/04/14 00:14:06;;;;;;;3.22;2.10;;;;;;;23.65;40.39;94573.84;4989220;28;20032;-74
2021/04/14 00:16:31;;;;;;;2.40;1.67;;;;;;;23.52;39.93;94554.69;4974105;28;20029;-74
2021/04/14 00:18:57;;;;;;;2.10;1.60;;;;;;;23.40;40.24;94545.22;5008840;28;20021;-74
2021/04/14 00:21:22;;;;;;;3.53;2.05;;;;;;;23.61;40.35;94562.47;4991032;28;20026;-74
2021/04/14 00:23:48;;;;;;;2.63;1.92;;;;;;;23.58;40.28;94555.31;5008549;28;20049;-73
2021/04/14 00:26:15;;;;;;;3.85;1.80;;;;;;;23.45;40.08;94538.94;5008718;28;20423;-74
2021/04/14 00:28:40;;;;;;;2.58;1.40;;;;;;;23.42;40.36;94540.72;5008853;28;20022;-74
2021/04/14 00:31:06;;;;;;;3.60;1.80;;;;;;;23.56;40.52;94571.47;4991130;28;20414;-74
2021/04/14 00:33:31;;;;;;;2.92;1.60;;;;;;;23.56;40.34;94571.47;4991272;28;20033;-74
2021/04/14 00:35:57;;;;;;;3.28;1.90;;;;;;;23.54;40.48;94568.53;5008620;28;20022;-74
2021/04/14 00:38:22;;;;;;;2.50;1.80;;;;;;;23.50;40.03;94562.66;4990723;28;20030;-73
2021/04/14 00:40:56;;;;;;;3.72;1.88;;;;;;;23.54;40.40;94579.41;5008480;28;20477;-74
2021/04/14 00:43:24;;;;;;;3.55;1.85;;;;;;;23.51;40.46;94580.47;4991436;28;20030;-74
2021/04/14 00:45:50;;;;;;;2.80;1.80;;;;;;;23.51;40.53;94591.38;5008434;28;20418;-74
2021/04/14 00:48:15;;;;;;;2.58;1.60;;;;;;;23.52;40.52;94592.84;5008586;28;20025;-74
2021/04/14 00:50:41;;;;;;;3.03;1.70;;;;;;;23.50;40.44;94579.72;5027826;28;20040;-74
2021/04/14 00:53:07;;;;;;;2.63;1.88;;;;;;;23.50;40.15;94581.72;5027370;28;20079;-74
2021/04/14 00:55:32;;;;;;;3.88;1.80;;;;;;;23.47;40.57;94582.78;5027985;28;20053;-74
2021/04/14 00:57:58;;;;;;;3.20;1.80;;;;;;;23.49;40.27;94593.88;5028185;28;20479;-74
2021/04/14 01:00:40;;;;;;;2.72;1.70;;;;;;;23.48;40.42;94586.94;5027892;28;20025;-74
2021/04/14 01:03:06;;;;;;;2.53;1.60;;;;;;;23.47;40.40;94596.41;5028029;28;20106;-74
2021/04/14 01:05:33;;;;;;;3.15;1.80;;;;;;;23.47;40.49;94596.41;5027957;28;20098;-73
2021/04/14 01:07:59;;;;;;;2.35;1.40;;;;;;;23.27;40.23;94583.31;5027766;28;20100;-74
2021/04/14 01:10:24;;;;;;;2.88;1.73;;;;;;;23.29;40.66;94586.28;5010223;28;20021;-74
2021/04/14 01:12:51;;;;;;;2.10;1.58;;;;;;;23.43;40.50;94606.84;5009900;28;20099;-74
2021/04/14 01:15:20;;;;;;;1.98;1.20;;;;;;;23.41;40.38;94604.66;5027836;28;20025;-74
2021/04/14 01:17:45;;;;;;;3.07;1.63;;;;;;;23.40;40.43;94608.63;5010340;28;20033;-74
2021/04/14 01:20:11;;;;;;;3.15;1.48;;;;;;;23.40;40.61;94616.06;5027680;28;20028;-74
2021/04/14 01:22:37;;;;;;;3.03;1.48;;;;;;;23.41;40.52;94614.81;5027569;28;20068;-74
2021/04/14 01:25:06;;;;;;;2.17;1.48;;;;;;;23.38;40.54;94615.88;5028029;28;20570;-73
2021/04/14 01:27:31;;;;;;;3.67;1.52;;;;;;;23.20;40.34;94589.38;5027801;28;20030;-74
2021/04/14 01:29:57;;;;;;;3.58;1.50;;;;;;;23.37;40.49;94614.38;5027447;28;20159;-74
2021/04/14 01:32:24;;;;;;;2.00;1.40;;;;;;;23.35;40.53;94616.16;5028105;28;20034;-73
2021/04/14 01:34:49;;;;;;;2.92;1.63;;;;;;;23.33;40.35;94635.72;5027653;28;20396;-73
2021/04/14 01:37:15;;;;;;;2.95;1.60;;;;;;;23.33;40.26;94630.28;5027574;28;20080;-74
2021/04/14 01:39:40;;;;;;;2.05;1.42;;;;;;;23.32;40.70;94634.28;5027756;28;20025;-73
2021/04/14 01:42:06;;;;;;;2.92;1.60;;;;;;;23.34;40.64;94631.78;5027806;28;20032;-74
2021/04/14 01:44:31;;;;;;;2.60;1.60;;;;;;;23.30;40.03;94628.59;5027579;28;20049;-73
2021/04/14 01:46:57;;;;;;;2.17;1.75;;;;;;;23.17;40.64;94601.31;5027624;28;20021;-73
2021/04/14 01:49:22;;;;;;;2.75;1.67;;;;;;;23.27;40.20;94621.47;5010021;28;20030;-73
2021/04/14 01:51:48;;;;;;;2.03;1.40;;;;;;;23.29;40.34;94608.06;5027341;28;20029;-74
2021/04/14 01:54:13;;;;;;;2.65;1.42;;;;;;;23.27;40.62;94594.22;5027969;28;20403;-74
2021/04/14 01:56:40;;;;;;;3.00;1.63;;;;;;;23.25;40.29;94580.38;5027589;28;20033;-74
2021/04/14 01:59:05;;;;;;;2.47;1.42;;;;;;;23.25;40.52;94574.94;5027696;28;20410;-74
2021/04/14 02:01:31;;;;;;;1.85;1.25;;;;;;;23.08;40.10;94566.28;5027826;28;20033;-74
2021/04/14 02:03:56;;;;;;;1.88;1.38;;;;;;;23.23;40.45;94582.91;5030227;28;20056;-74
2021/04/14 02:06:21;;;;;;;2.55;1.20;;;;;;;23.23;40.42;94582.91;5031551;28;20052;-74
2021/04/14 02:08:47;;;;;;;2.20;1.67;;;;;;;23.03;40.37;94556.22;5031787;28;20127;-74
2021/04/14 02:11:15;;;;;;;1.83;1.30;;;;;;;23.21;40.42;94574.50;5014678;28;20476;-74
2021/04/14 02:13:41;;;;;;;3.08;1.58;;;;;;;23.22;40.67;94570.53;5040788;28;20112;-73
2021/04/14 02:16:07;;;;;;;2.88;1.40;;;;;;;23.20;40.39;94567.59;5042608;28;20053;-74
2021/04/14 02:18:33;;;;;;;2.20;1.42;;;;;;;23.21;40.34;94552.69;5049017;28;20096;-74
2021/04/14 02:21:00;;;;;;;2.53;1.38;;;;;;;23.19;40.46;94559.94;5055867;28;20017;-74
2021/04/14 02:23:33;;;;;;;2.22;1.38;;;;;;;23.17;40.82;94552.28;5040479;28;20029;-74
2021/04/14 02:26:00;;;;;;;1.98;1.20;;;;;;;23.16;40.35;94550.81;5041141;28;20021;-74
2021/04/14 02:28:25;;;;;;;2.25;1.08;;;;;;;23.17;40.30;94546.84;5057007;28;20336;-73
2021/04/14 02:30:51;;;;;;;2.88;1.50;;;;;;;23.13;40.76;94546.38;5053597;28;20196;-74
2021/04/14 02:33:16;;;;;;;1.77;1.20;;;;;;;23.12;40.51;94544.94;5049282;28;20021;-74
2021/04/14 02:35:42;;;;;;;1.70;1.20;;;;;;;23.08;40.67;94549.94;5048931;28;20026;-74
2021/04/14 02:38:07;;;;;;;2.22;1.33;;;;;;;23.14;40.56;94553.31;5047200;28;20026;-74
2021/04/14 02:40:33;;;;;;;2.08;1.20;;;;;;;23.11;40.57;94548.91;5044576;28;20025;-73
2021/04/14 02:42:59;;;;;;;2.00;1.23;;;;;;;22.79;40.47;94506.53;5042361;28;20116;-73
2021/04/14 02:45:26;;;;;;;2.60;1.45;;;;;;;23.10;40.39;94558.31;5021785;28;20040;-73
2021/04/14 02:47:51;;;;;;;1.30;0.90;;;;;;;23.09;40.58;94556.88;5032142;28;20025;-73
2021/04/14 02:50:17;;;;;;;2.45;1.38;;;;;;;23.09;40.51;94551.44;5031885;28;20029;-74
2021/04/14 02:52:42;;;;;;;2.50;1.33;;;;;;;23.06;40.28;94546.25;5031931;28;20057;-74
2021/04/14 02:55:09;;;;;;;1.65;1.00;;;;;;;22.94;40.51;94526.66;5030999;28;20041;-74
2021/04/14 02:57:34;;;;;;;1.73;0.93;;;;;;;23.08;40.40;94549.22;5030482;28;20033;-72
2021/04/14 03:00:00;;;;;;;2.40;1.40;;;;;;;23.05;40.57;94550.97;5028897;28;20032;-73
2021/04/14 03:02:25;;;;;;;2.38;1.20;;;;;;;23.08;40.51;94549.22;5030283;28;20033;-73
2021/04/14 03:04:51;;;;;;;3.22;1.25;;;;;;;23.03;40.35;94537.16;5029852;28;20057;-73
2021/04/14 03:07:16;;;;;;;2.15;1.30;;;;;;;23.04;40.46;94541.34;5029709;28;20421;-73
2021/04/14 03:09:42;;;;;;;1.73;0.90;;;;;;;23.05;40.52;94540.09;5028343;28;20036;-74
2021/04/14 03:12:08;;;;;;;1.77;1.13;;;;;;;23.03;40.40;94534.44;5029651;28;20029;-74
2021/04/14 03:14:34;;;;;;;1.77;1.08;;;;;;;22.88;40.48;94515.06;5011115;28;20043;-73
2021/04/14 03:17:00;;;;;;;1.63;1.00;;;;;;;22.89;40.31;94521.25;5012433;28;20033;-74
2021/04/14 03:19:25;;;;;;;1.52;0.90;;;;;;;23.03;40.56;94542.59;5012484;28;20025;-73
2021/04/14 03:21:51;;;;;;;1.98;1.20;;;;;;;23.00;40.40;94532.75;5029671;28;20417;-73
2021/04/14 03:24:16;;;;;;;1.42;0.95;;;;;;;23.01;40.32;94539.66;5029370;28;20052;-73
2021/04/14 03:26:42;;;;;;;1.80;1.20;;;;;;;22.99;40.48;94542.16;5029642;28;20036;-73
2021/04/14 03:29:07;;;;;;;1.75;1.13;;;;;;;22.94;40.61;94528.63;5028558;28;20036;-73
2021/04/14 03:31:33;;;;;;;1.40;0.85;;;;;;;22.99;40.74;94542.16;4989910;28;20026;-73
2021/04/14 03:33:58;;;;;;;1.98;1.02;;;;;;;22.95;40.31;94541.72;4972679;28;20037;-73
2021/04/14 03:36:24;;;;;;;1.50;0.90;;;;;;;22.97;40.79;94547.41;4990253;28;20022;-73
2021/04/14 03:38:49;;;;;;;1.63;0.93;;;;;;;22.98;40.47;94540.69;4989506;28;20023;-73
2021/04/14 03:41:15;;;;;;;1.30;0.88;;;;;;;22.98;40.47;94537.22;5014073;28;20033;-73
2021/04/14 03:43:41;;;;;;;2.63;1.00;;;;;;;22.97;40.52;94533.78;4967120;28;20041;-74
2021/04/14 03:46:07;;;;;;;1.92;1.15;;;;;;;22.99;40.43;94542.16;5011136;28;20034;-74
2021/04/14 03:48:32;;;;;;;1.88;1.00;;;;;;;22.96;40.68;94532.31;5009350;28;20057;-73
2021/04/14 03:50:58;;;;;;;2.58;1.25;;;;;;;22.97;40.49;94544.66;5009047;28;20431;-73
2021/04/14 03:53:27;;;;;;;1.55;1.00;;;;;;;22.95;40.58;94547.16;5000340;28;20410;-74
2021/04/14 03:55:59;;;;;;;1.88;1.10;;;;;;;22.93;40.65;94544.22;5029053;28;20052;-74
2021/04/14 03:58:25;;;;;;;1.65;0.98;;;;;;;22.95;40.65;94536.25;4993120;28;20036;-74
2021/04/14 04:00:55;;;;;;;1.00;0.85;;;;;;;22.97;40.50;94541.94;4983516;28;20034;-74
2021/04/14 04:03:21;;;;;;;2.35;1.02;;;;;;;22.94;40.39;94542.97;4972511;28;20100;-74
2021/04/14 04:05:46;;;;;;;1.42;1.20;;;;;;;22.95;40.70;94544.44;4989791;28;20048;-75
2021/04/14 04:08:12;;;;;;;1.58;1.00;;;;;;;23.04;40.37;94549.50;5025275;28;20025;-68
2021/04/14 04:10:37;;;;;;;2.78;1.15;;;;;;;23.17;40.29;94552.28;5012789;28;20025;-74
2021/04/14 04:13:03;;;;;;;3.00;0.82;;;;;;;23.20;40.46;94543.06;5014044;28;20037;-74
2021/04/14 04:15:28;;;;;;;2.05;0.80;;;;;;;23.23;40.32;94533.88;4989797;28;20034;-78
2021/04/14 04:17:54;;;;;;;2.47;0.82;;;;;;;23.29;40.43;94550.84;4994065;28;20023;-77
2021/04/14 04:20:19;;;;;;;1.52;0.90;;;;;;;23.35;40.52;94556.94;4989438;28;20049;-75
2021/04/14 04:22:45;;;;;;;1.88;0.90;;;;;;;23.47;40.31;94563.69;5013585;28;20405;-73
2021/04/14 04:25:11;;;;;;;2.50;0.82;;;;;;;23.52;40.35;94569.03;5019777;28;20138;-75
2021/04/14 04:27:36;;;;;;;2.45;0.80;;;;;;;23.54;40.09;94563.06;5019441;28;20069;-75
2021/04/14 04:30:04;;;;;;;1.48;0.85;;;;;;;23.66;39.89;94565.13;5009658;28;20025;-72
2021/04/14 04:32:29;;;;;;;1.48;0.75;;;;;;;23.61;40.09;94557.00;5018991;28;20060;-74
2021/04/14 04:34:55;;;;;;;1.80;0.77;;;;;;;23.70;39.53;94557.38;4996055;28;20369;-77
2021/04/14 04:37:20;;;;;;;2.08;0.85;;;;;;;23.84;39.86;94566.28;4975323;28;20029;-76
2021/04/14 04:39:46;;;;;;;1.70;0.80;;;;;;;24.03;39.01;94582.03;4991806;28;20085;-74
2021/04/14 04:42:12;;;;;;;1.38;0.70;;;;;;;23.95;39.30;94559.38;5013184;28;20430;-75
2021/04/14 04:44:37;;;;;;;1.42;0.80;;;;;;;24.02;38.81;94558.78;5021379;28;20045;-77
2021/04/14 04:47:02;;;;;;;1.25;0.80;;;;;;;24.33;38.65;94587.97;4979089;28;20048;-74
2021/04/14 04:49:28;;;;;;;1.58;0.95;;;;;;;24.45;38.28;94594.66;5006608;28;20025;-75
2021/04/14 04:51:53;;;;;;;1.02;0.70;;;;;;;24.57;38.18;94596.69;5001487;28;20030;-75
2021/04/14 04:54:19;;;;;;;0.90;0.60;;;;;;;24.64;38.17;94595.28;4990237;28;20030;-76
2021/04/14 04:56:44;;;;;;;1.98;0.90;;;;;;;24.62;38.74;94582.16;5004119;28;20498;-76
2021/04/14 04:59:10;;;;;;;1.17;0.63;;;;;;;24.85;37.90;94599.56;5007904;28;20470;-74
2021/04/14 05:01:35;;;;;;;1.95;0.68;;;;;;;24.80;37.76;94594.19;5002182;28;20518;-73
2021/04/14 05:04:01;;;;;;;1.30;0.60;;;;;;;25.10;37.70;94620.66;5007760;28;20435;-74
2021/04/14 05:06:26;;;;;;;1.25;0.60;;;;;;;25.18;37.61;94613.25;5004288;28;20021;-74
2021/04/14 05:08:52;;;;;;;1.30;0.70;;;;;;;25.32;37.36;94620.16;5010597;28;20037;-71
2021/04/14 05:11:17;;;;;;;2.10;0.60;;;;;;;25.41;37.05;94627.88;5015244;28;20036;-72
2021/04/14 05:13:43;;;;;;;0.90;0.70;;;;;;;25.45;37.01;94628.31;5025380;28;20032;-71
2021/04/14 05:16:08;;;;;;;1.02;0.70;;;;;;;25.48;36.98;94627.97;5019778;28;20106;-72
2021/04/14 05:18:35;;;;;;;2.83;1.00;;;;;;;25.41;36.79;94634.09;5024291;28;20473;-72
2021/04/14 05:21:03;;;;;;;2.47;0.70;;;;;;;25.49;37.04;94645.13;5015845;28;20131;-71
2021/04/14 05:23:29;;;;;;;1.88;0.70;;;;;;;25.55;37.04;94637.53;5021563;28;20548;-71
2021/04/14 05:25:56;;;;;;;2.17;0.80;;;;;;;25.60;37.30;94633.91;5016424;28;20037;-71
2021/04/14 05:28:23;;;;;;;1.58;0.70;;;;;;;25.63;37.47;94627.38;5019822;28;20124;-74
2021/04/14 05:30:49;;;;;;;1.27;0.80;;;;;;;25.71;39.57;94622.75;5004450;28;20041;-74
2021/04/14 05:33:14;;;;;;;1.50;0.70;;;;;;;25.62;39.90;94606.75;4999464;28;20022;-77
2021/04/14 05:35:40;;;;;;;0.98;0.63;;;;;;;25.70;37.91;94613.09;4979539;28;20029;-73
2021/04/14 05:38:06;;;;;;;1.10;0.50;;;;;;;25.78;40.70;94644.69;5007747;28;20025;-74
2021/04/14 05:40:32;;;;;;;2.65;0.60;;;;;;;25.75;40.20;94645.03;5006024;28;20028;-77
2021/04/14 05:42:58;;;;;;;1.13;0.70;;;;;;;25.80;39.91;94637.44;5022669;28;20028;-75
2021/04/14 05:45:26;;;;;;;1.90;0.60;;;;;;;25.84;38.27;94637.84;5021857;28;20111;-74
2021/04/14 05:47:51;;;;;;;1.35;0.63;;;;;;;25.93;37.69;94644.81;5021924;28;20017;-72
2021/04/14 05:50:19;;;;;;;1.90;0.60;;;;;;;25.89;39.51;94639.69;5013586;28;20525;-72
2021/04/14 05:52:44;;;;;;;1.27;0.70;;;;;;;25.95;39.13;94643.03;4993316;28;20042;-73
2021/04/14 05:55:10;;;;;;;0.90;0.50;;;;;;;25.95;38.43;94648.50;4985210;28;20495;-73
2021/04/14 05:57:35;;;;;;;1.15;0.60;;;;;;;25.98;37.38;94641.22;5020151;28;20048;-73
2021/04/14 06:00:01;;;;;;;1.08;0.50;;;;;;;26.08;37.41;94651.13;5023674;28;20026;-74
2021/04/14 06:02:27;;;;;;;0.80;0.50;;;;;;;26.11;37.27;94639.13;5027303;28;20105;-74
2021/04/14 06:04:52;;;;;;;1.40;0.60;;;;;;;26.01;36.76;94629.94;4953037;28;20046;-75
2021/04/14 06:07:18;;;;;;;1.40;0.50;;;;;;;26.17;36.85;94660.88;4985427;28;20073;-72
2021/04/14 06:09:44;;;;;;;1.02;0.52;;;;;;;26.17;36.80;94658.88;5020706;28;20030;-72
2021/04/14 06:12:10;;;;;;;1.00;0.60;;;;;;;26.24;36.56;94669.16;5020402;28;20049;-71
2021/04/14 06:14:35;;;;;;;1.33;0.50;;;;;;;26.22;36.49;94666.22;5021770;28;20408;-74
2021/04/14 06:17:01;;;;;;;1.70;0.68;;;;;;;26.28;36.23;94669.59;4989437;28;20025;-71
2021/04/14 06:19:26;;;;;;;1.08;0.60;;;;;;;26.28;36.49;94664.13;5025745;28;20028;-71
2021/04/14 06:21:52;;;;;;;1.10;0.60;;;;;;;26.33;36.21;94674.19;5016462;28;20036;-73
2021/04/14 06:24:18;;;;;;;1.38;0.70;;;;;;;26.24;36.23;94652.00;5021859;28;20026;-72
2021/04/14 06:26:47;;;;;;;1.02;0.52;;;;;;;26.45;36.09;94678.09;4996432;28;20025;-71
2021/04/14 06:29:13;;;;;;;1.92;0.75;;;;;;;26.45;35.88;94678.09;5015830;28;20026;-74
2021/04/14 06:31:42;;;;;;;1.63;0.70;;;;;;;26.51;36.03;94681.44;5012212;28;20041;-72
2021/04/14 06:34:19;;;;;;;1.40;0.70;;;;;;;26.44;35.75;94676.63;5022658;28;20029;-72
2021/04/14 06:36:46;;;;;;;1.15;0.68;;;;;;;26.51;35.81;94692.38;5019344;28;20052;-72
2021/04/14 06:39:14;;;;;;;1.45;0.57;;;;;;;26.48;35.58;94696.19;5027037;28;20025;-72
2021/04/14 06:44:17;;;;;;;1.20;0.60;;;;;;;26.54;35.59;94696.78;5014910;28;20027;-72
2021/04/14 06:46:43;;;;;;;1.20;0.60;;;;;;;26.47;35.67;94700.19;4995052;28;20068;-73
2021/04/14 06:49:12;;;;;;;1.00;0.60;;;;;;;26.45;35.83;94702.75;4986291;28;20042;-73
2021/04/14 06:51:52;;;;;;;1.23;0.60;;;;;;;26.34;35.71;94716.72;5003545;28;20038;-73
2021/04/14 06:54:37;;;;;;;0.93;0.70;;;;;;;26.32;35.72;94713.78;4992098;28;20025;-73
2021/04/14 06:57:09;;;;;;;2.00;0.80;;;;;;;26.26;35.68;94704.22;5005944;28;20590;-71
2021/04/14 06:59:34;;;;;;;2.35;0.90;;;;;;;26.24;35.64;94718.44;4976019;28;20028;-71
2021/04/14 07:02:06;;;;;;;0.88;0.60;;;;;;;26.12;35.93;94716.50;4989063;28;20033;-72
2021/04/14 07:04:48;;;;;;;1.25;0.50;;;;;;;26.13;35.78;94707.75;4991499;28;20050;-72
2021/04/14 07:07:24;;;;;;;1.13;0.68;;;;;;;26.06;35.58;94719.38;4991983;28;20421;-72
2021/04/14 07:09:50;;;;;;;1.40;0.68;;;;;;;25.93;36.23;94722.19;4992521;28;20022;-72
2021/04/14 07:12:19;;;;;;;1.73;0.60;;;;;;;25.93;35.80;94716.72;5006324;28;20033;-72
2021/04/14 07:14:45;;;;;;;0.82;0.60;;;;;;;25.80;36.28;94719.50;5004961;28;20603;-72
2021/04/14 07:17:16;;;;;;;1.25;0.60;;;;;;;25.77;35.99;94730.03;4981800;28;20507;-72
2021/04/14 07:19:52;;;;;;;1.77;0.65;;;;;;;25.79;36.02;94739.91;5012790;28;20080;-71
2021/04/14 07:22:44;;;;;;;0.90;0.60;;;;;;;25.74;35.99;94731.09;5003704;28;20048;-72
2021/04/14 07:25:24;;;;;;;1.75;0.60;;;;;;;25.71;36.25;94737.63;4988305;28;20017;-72
2021/04/14 07:28:04;;;;;;;1.20;0.50;;;;;;;25.64;35.76;94738.25;4986504;28;20029;-72
2021/04/14 07:30:41;;;;;;;1.67;0.63;;;;;;;25.48;36.23;94709.25;5004383;28;20029;-72
2021/04/14 07:33:16;;;;;;;1.13;0.65;;;;;;;25.53;36.41;94733.75;4984284;28;20510;-72
2021/04/14 07:36:03;;;;;;;1.02;0.50;;;;;;;25.55;35.98;94739.44;4999252;28;20051;-72
2021/04/14 07:38:44;;;;;;;2.28;0.73;;;;;;;25.38;36.30;94732.84;5002483;28;20029;-72
2021/04/14 07:41:21;;;;;;;1.25;0.70;;;;;;;25.49;36.42;94738.09;4979005;28;20414;-72
2021/04/14 07:44:03;;;;;;;1.40;0.65;;;;;;;25.43;36.81;94751.13;5002439;28;20083;-72
2021/04/14 07:46:29;;;;;;;0.80;0.45;;;;;;;25.40;36.30;94736.50;4990285;28;20045;-72
2021/04/14 07:48:57;;;;;;;1.48;0.50;;;;;;;25.36;36.65;94746.31;4984470;28;20037;-71
2021/04/14 07:51:23;;;;;;;1.50;0.82;;;;;;;25.35;36.26;94745.56;4963082;28;20356;-71
2021/04/14 07:53:59;;;;;;;0.95;0.50;;;;;;;25.28;36.56;94745.47;5002468;28;20029;-71
2021/04/14 07:56:25;;;;;;;0.90;0.50;;;;;;;25.25;36.57;94735.59;5002419;28;20029;-71
2021/04/14 07:59:31;;;;;;;1.02;0.45;;;;;;;25.32;36.35;94745.91;4968801;28;20477;-71
2021/04/14 08:01:56;;;;;;;1.02;0.60;;;;;;;25.27;36.50;94754.22;5005294;28;20475;-71
2021/04/14 08:04:28;;;;;;;0.73;0.40;;;;;;;25.22;36.50;94753.06;5002487;28;20077;-71
2021/04/14 08:07:05;;;;;;;1.20;0.50;;;;;;;25.21;36.70;94753.59;4990863;28;20022;-71
2021/04/14 08:09:30;;;;;;;0.80;0.60;;;;;;;25.16;36.35;94748.97;5008658;28;20017;-71
2021/04/14 08:11:57;;;;;;;1.15;0.70;;;;;;;25.21;36.62;94746.13;5008616;28;20029;-71
2021/04/14 08:14:42;;;;;;;2.58;0.60;;;;;;;25.17;36.69;94762.13;5007293;28;20029;-71
2021/04/14 08:17:21;;;;;;;2.03;0.52;;;;;;;25.15;36.56;94752.97;5008611;28;20041;-70
2021/04/14 08:19:47;;;;;;;1.48;0.70;;;;;;;25.07;37.03;94746.66;5001117;28;20041;-71
2021/04/14 08:22:15;;;;;;;1.70;0.50;;;;;;;25.11;37.17;94775.16;4987416;28;20026;-71
2021/04/14 08:24:50;;;;;;;1.67;0.50;;;;;;;25.07;36.79;94772.00;5003666;28;20080;-71
2021/04/14 08:27:26;;;;;;;1.30;0.90;;;;;;;25.05;36.80;94766.31;4998583;28;20032;-71
2021/04/14 08:30:08;;;;;;;1.15;0.55;;;;;;;25.07;37.12;94766.53;4998779;28;20112;-72
2021/04/14 08:32:44;;;;;;;0.80;0.50;;;;;;;25.01;36.67;94760.44;4998536;28;20072;-72
2021/04/14 08:35:30;;;;;;;1.13;0.60;;;;;;;24.87;36.86;94734.34;4988333;28;20133;-71
2021/04/14 08:38:22;;;;;;;1.05;0.60;;;;;;;25.01;36.81;94752.22;4975929;28;20480;-71
2021/04/14 08:41:02;;;;;;;1.30;0.63;;;;;;;24.94;36.76;94739.16;4981261;28;20038;-72
2021/04/14 08:43:42;;;;;;;1.00;0.65;;;;;;;24.99;37.05;94748.53;5006226;28;20026;-72
2021/04/14 08:46:11;;;;;;;0.70;0.55;;;;;;;24.95;36.90;94743.38;5006117;28;20029;-72
2021/04/14 08:48:36;;;;;;;1.20;0.60;;;;;;;25.01;36.86;94738.56;5005056;28;20033;-71
2021/04/14 08:51:04;;;;;;;0.93;0.50;;;;;;;24.99;36.81;94752.03;4988632;28;20535;-72
2021/04/14 08:53:38;;;;;;;1.75;0.70;;;;;;;24.99;36.58;94752.03;5004693;28;20447;-72
2021/04/14 08:56:04;;;;;;;1.08;0.60;;;;;;;24.97;36.85;94754.50;4991628;28;20033;-72
2021/04/14 08:58:29;;;;;;;1.27;0.55;;;;;;;25.00;36.77;94742.56;5011637;28;20037;-72
2021/04/14 09:00:55;;;;;;;1.30;0.73;;;;;;;24.98;37.19;94734.13;4980954;28;20022;-72
2021/04/14 09:03:22;;;;;;;1.27;0.80;;;;;;;24.97;37.36;94738.13;4975015;28;20109;-72
2021/04/14 09:05:47;;;;;;;1.58;0.65;;;;;;;24.97;37.10;94732.66;4977591;28;20125;-71
2021/04/14 09:08:17;;;;;;;0.95;0.60;;;;;;;25.00;36.90;94720.69;4979420;28;20137;-71
2021/04/14 09:10:49;;;;;;;1.58;0.63;;;;;;;25.02;37.31;94722.91;4924425;28;20093;-72
2021/04/14 09:13:14;;;;;;;1.08;0.55;;;;;;;25.04;37.10;94726.59;5003523;28;20025;-72
2021/04/14 09:16:06;;;;;;;2.20;0.70;;;;;;;25.06;37.21;94718.59;4995302;28;20569;-73
2021/04/14 09:18:38;;;;;;;1.45;0.65;;;;;;;25.08;37.17;94716.09;4996520;28;20036;-78
2021/04/14 09:21:12;;;;;;;0.95;0.45;;;;;;;25.06;37.53;94713.13;4991283;28;20033;-75
2021/04/14 09:23:40;;;;;;;1.67;0.68;;;;;;;25.08;37.09;94724.28;4998460;28;20030;-75
2021/04/14 09:26:13;;;;;;;1.38;0.50;;;;;;;25.15;36.97;94726.34;4982202;28;20537;-75
2021/04/14 09:28:44;;;;;;;1.20;0.55;;;;;;;25.22;36.52;94725.72;4988165;28;20514;-75
2021/04/14 09:31:13;;;;;;;1.73;0.50;;;;;;;25.30;36.66;94732.00;4970379;28;20064;-72
2021/04/14 09:33:42;;;;;;;0.93;0.50;;;;;;;25.43;36.86;94723.78;4984137;28;20026;-72
2021/04/14 09:36:10;;;;;;;2.45;0.43;;;;;;;25.51;36.72;94719.13;4983205;28;20038;-74
2021/04/14 09:38:49;;;;;;;2.28;0.60;;;;;;;25.57;36.68;94733.44;4981113;28;20042;-73
2021/04/14 09:41:24;;;;;;;1.95;0.50;;;;;;;25.61;36.92;94722.91;4986165;28;20574;-74
2021/04/14 09:43:50;;;;;;;1.85;0.40;;;;;;;25.71;36.79;94732.91;4983490;28;20038;-74
2021/04/14 09:46:38;;;;;;;1.38;0.63;;;;;;;25.81;36.94;94720.97;4986113;28;20042;-74
2021/04/14 09:49:14;;;;;;;1.90;0.60;;;;;;;25.86;37.43;94728.31;4982254;28;20900;-74
2021/04/14 09:51:42;;;;;;;1.95;0.50;;;;;;;25.91;37.99;94713.75;4986369;28;20026;-74
2021/04/14 09:54:18;;;;;;;1.05;0.50;;;;;;;25.85;40.01;94704.94;4984567;28;20045;-74
2021/04/14 09:56:46;;;;;;;1.67;1.00;;;;;;;26.02;39.63;94708.03;4988958;28;20114;-73
2021/04/14 09:59:27;;;;;;;1.98;0.60;;;;;;;26.17;42.13;94716.34;4985778;28;20617;-74
2021/04/14 10:01:59;;;;;;;0.88;0.40;;;;;;;26.07;42.76;94720.84;4971466;28;20049;-74
2021/04/14 10:04:24;;;;;;;1.25;0.45;;;;;;;26.20;41.10;94720.75;4958535;28;721672;-74
2021/04/14 10:07:03;;;;;;;1.13;0.52;;;;;;;26.21;39.58;94714.03;4986427;28;20057;-72
2021/04/14 10:09:30;;;;;;;1.05;0.60;;;;;;;26.21;38.45;94727.72;4990121;28;20070;-74
2021/04/14 10:12:12;;;;;;;1.02;0.50;;;;;;;26.30;37.84;94706.09;4986663;28;20406;-74
2021/04/14 10:14:48;;;;;;;6.43;0.90;;;;;;;26.37;37.75;94710.19;4981633;28;20031;-72
2021/04/14 10:17:14;;;;;;;7.45;0.90;;;;;;;26.42;37.65;94712.03;4995265;28;20034;-72
2021/04/14 10:19:40;;;;;;;8.00;0.77;;;;;;;26.54;37.17;94718.72;4987477;28;20056;-71
2021/04/14 10:22:07;;;;;;;7.05;1.15;;;;;;;26.54;36.97;94702.28;4988204;28;20040;-74
2021/04/14 10:24:33;;;;;;;4.65;0.82;;;;;;;26.60;36.69;94711.81;4989765;28;20037;-74
2021/04/14 10:26:58;;;;;;;4.15;0.70;;;;;;;26.61;36.65;94701.59;4993294;28;20818;-74
2021/04/14 10:29:30;;;;;;;3.70;0.80;;;;;;;26.60;37.05;94717.28;4986997;28;20098;-73
2021/04/14 10:31:56;;;;;;;2.30;0.80;;;;;;;26.62;37.10;94719.47;4975151;28;20034;-73
2021/04/14 10:34:27;;;;;;;5.85;0.70;;;;;;;26.67;37.05;94722.09;4992528;28;20038;-74
2021/04/14 10:36:53;;;;;;;1.80;0.60;;;;;;;26.58;36.89;94692.44;5004464;28;20042;-74
2021/04/14 10:39:31;;;;;;;3.40;0.50;;;;;;;26.84;36.66;94714.88;5002380;28;20088;-69
2021/04/14 10:41:57;;;;;;;3.20;0.90;;;;;;;26.80;37.29;94714.50;5006594;28;20034;-71
2021/04/14 10:44:29;;;;;;;4.75;1.00;;;;;;;26.91;36.65;94727.94;5000349;28;20103;-71
2021/04/14 10:47:01;;;;;;;2.13;0.60;;;;;;;26.71;36.77;94692.34;5022465;28;20093;-72
2021/04/14 10:49:32;;;;;;;2.08;0.60;;;;;;;26.83;36.46;94707.94;4963799;28;20026;-73
2021/04/14 10:52:04;;;;;;;1.63;0.60;;;;;;;26.79;36.25;94696.59;4992390;28;20076;-73
2021/04/14 10:54:30;;;;;;;1.35;0.50;;;;;;;27.01;36.17;94717.94;4986014;28;20032;-75
2021/04/14 10:57:02;;;;;;;4.32;0.70;;;;;;;27.10;36.05;94722.94;5001424;28;20030;-71
2021/04/14 10:59:28;;;;;;;1.60;0.40;;;;;;;26.99;35.71;94712.25;4995729;28;20025;-71
2021/04/14 11:01:54;;;;;;;2.65;0.50;;;;;;;27.04;35.90;94705.91;5006003;28;20083;-71
2021/04/14 11:04:25;;;;;;;2.30;0.68;;;;;;;27.14;35.76;94709.59;5001013;28;20054;-72
2021/04/14 11:06:53;;;;;;;2.15;0.57;;;;;;;27.14;35.92;94703.38;5001298;28;20105;-71
2021/04/14 11:09:19;;;;;;;1.00;0.45;;;;;;;27.03;35.42;94685.25;4978219;28;20029;-71
2021/04/14 11:11:44;;;;;;;2.05;0.40;;;;;;;27.14;35.16;94704.09;5000475;28;20021;-70
2021/04/14 11:14:11;;;;;;;3.20;0.63;;;;;;;27.28;35.42;94702.72;4989282;28;20054;-74
2021/04/14 11:16:37;;;;;;;3.80;0.73;;;;;;;27.14;35.22;94678.72;5014461;28;20168;-74
2021/04/14 11:19:15;;;;;;;2.10;0.70;;;;;;;27.26;35.00;94710.75;4985643;28;20034;-70
2021/04/14 11:21:41;;;;;;;3.25;0.68;;;;;;;27.20;35.03;94714.94;4994783;28;20488;-72
2021/04/14 11:24:09;;;;;;;1.33;0.65;;;;;;;27.07;35.50;94721.28;4992918;28;20039;-72
2021/04/14 11:26:38;;;;;;;4.03;1.05;;;;;;;27.06;35.32;94730.75;4990641;28;20045;-72
2021/04/14 11:29:04;;;;;;;1.95;0.63;;;;;;;26.96;35.54;94732.53;4988890;28;20096;-72
2021/04/14 11:31:35;;;;;;;1.65;0.52;;;;;;;26.85;35.69;94727.31;4993076;28;20026;-72
2021/04/14 11:34:10;;;;;;;2.00;0.90;;;;;;;26.82;35.72;94722.91;4972781;28;20031;-72
2021/04/14 11:36:36;;;;;;;1.30;0.52;;;;;;;26.71;35.69;94732.69;4982220;28;20165;-72
2021/04/14 11:39:08;;;;;;;2.75;1.58;;;;;;;26.71;35.88;94722.50;4986071;28;20472;-72
2021/04/14 11:41:35;;;;;;;1.60;0.73;;;;;;;26.66;35.62;94730.84;4986159;28;20546;-72
2021/04/14 11:44:02;;;;;;;1.75;0.60;;;;;;;26.62;35.92;94730.44;4983718;28;20060;-72